Weather reports worldwide

Advertisment
Navarredonda de gredos, Spain (8206): temperature & dewpoint: 14.10.2019 23:00:00 - 20.10.2019 23:00:00 (CEST)Navarredonda de gredos, Spain (8206): wind speed & gusts: 14.10.2019 23:00:00 - 20.10.2019 23:00:00 (CEST)Navarredonda de gredos, Spain (8206): wind direction: 14.10.2019 23:00:00 - 20.10.2019 23:00:00 (CEST)Navarredonda de gredos, Spain (8206): precipitation: 14.10.2019 23:00:00 - 20.10.2019 23:00:00 (CEST)
Date & Time tt [°C] td [°C] ff [km/h] ff [kn] fx [km/h] fx [kn] dd rr [mm]
20.10.2019 23:00:00 - - - - - - - -
20.10.2019 22:00:00 - - - - - - - -
20.10.2019 21:00:00 - - - - - - - -
20.10.2019 20:00:00 - - - - - - - -
20.10.2019 19:00:00 - - - - - - - -
20.10.2019 18:00:00 5,7 1,3 3 1 20 11 WNW 0,0
20.10.2019 17:00:00 5,7 2,3 3 1 20 11 W 0,0
20.10.2019 16:00:00 4,9 2,3 1 1 21 11 W 0,0
20.10.2019 15:00:00 5,1 2,5 4 2 24 13 NNW 0,0
20.10.2019 14:00:00 5,9 4,5 3 2 16 9 WSW -
20.10.2019 13:00:00 4,9 4,1 5 3 18 10 SW 0,0
20.10.2019 12:00:00 4,8 4,1 4 2 15 8 WSW 0,0
20.10.2019 11:00:00 4,4 4,1 4 2 11 6 WSW 0,0
20.10.2019 10:00:00 3,7 3,4 2 1 6 3 W 0,0
20.10.2019 09:00:00 2,5 2,3 0 0 2 1 W 0,0
20.10.2019 08:00:00 2,7 2,5 0 0 4 2 ENE -
20.10.2019 07:00:00 2,5 2,3 0 0 8 4 WNW 0,0
20.10.2019 06:00:00 2,9 2,7 1 0 9 5 E 0,0
20.10.2019 05:00:00 2,3 1,9 1 0 7 4 S 0,0
20.10.2019 04:00:00 1,8 1,1 2 1 11 6 SW 0,0
20.10.2019 03:00:00 2,9 2,1 5 3 14 8 WSW 0,0
20.10.2019 02:00:00 3,5 2,7 1 1 13 7 W -
20.10.2019 01:00:00 4,3 3,0 3 2 10 6 WSW 0,0
20.10.2019 00:00:00 5,7 4,5 4 2 17 9 W 0,0
19.10.2019 23:00:00 7,7 7,0 3 2 25 14 W 0,0
19.10.2019 22:00:00 8,0 7,3 5 3 23 13 SSW 0,0
19.10.2019 21:00:00 7,7 7,0 11 6 39 21 SSW 0,0
19.10.2019 20:00:00 7,3 6,4 3 1 37 20 NW -
19.10.2019 19:00:00 8,2 7,0 13 7 34 18 SSW 0,0
19.10.2019 18:00:00 9,4 8,0 9 5 24 13 SSE 0,0
19.10.2019 17:00:00 8,4 6,1 7 4 25 13 E 0,0
19.10.2019 16:00:00 11,3 4,5 6 3 32 17 SE 0,0
19.10.2019 15:00:00 14,1 5,8 8 4 38 21 S 0,0
19.10.2019 14:00:00 11,4 4,8 16 9 38 21 SSW -
19.10.2019 13:00:00 12,9 2,1 9 5 23 12 SSW 0,0
19.10.2019 12:00:00 12,9 1,3 3 1 14 7 W 0,0
19.10.2019 11:00:00 9,5 3,9 2 1 9 5 S 0,0
19.10.2019 10:00:00 5,2 3,9 4 2 10 6 NE 0,0
19.10.2019 09:00:00 3,0 2,5 2 1 6 3 ENE 0,0
19.10.2019 08:00:00 2,5 1,7 1 0 10 5 NNW -
19.10.2019 07:00:00 2,6 1,9 6 3 11 6 NNE 0,0
19.10.2019 06:00:00 2,8 2,1 4 2 7 4 E 0,0
19.10.2019 05:00:00 2,4 1,5 1 1 6 3 WNW 0,0
19.10.2019 04:00:00 2,9 1,1 3 2 17 9 WSW 0,0
19.10.2019 03:00:00 3,0 0,6 1 1 9 5 NNE 0,0
19.10.2019 02:00:00 4,5 1,3 5 3 9 5 N -
19.10.2019 01:00:00 4,4 1,5 4 2 9 5 NNW 0,0
19.10.2019 00:00:00 3,9 1,1 5 3 10 5 N 0,0
18.10.2019 23:00:00 5,3 0,6 3 2 8 5 WSW 0,0
18.10.2019 22:00:00 6,1 -2,2 4 2 9 5 N 0,0
18.10.2019 21:00:00 7,6 -3,3 3 2 13 7 WNW 0,0
18.10.2019 20:00:00 9,9 -3,6 5 3 18 10 SSW -
18.10.2019 19:00:00 13,0 -1,7 6 4 18 10 SSW 0,0
18.10.2019 18:00:00 15,9 -2,2 8 4 20 11 SW 0,0
18.10.2019 17:00:00 16,7 -3,0 4 2 22 12 SW 0,0
18.10.2019 16:00:00 17,8 2,1 4 2 17 9 W 0,0
18.10.2019 15:00:00 16,2 3,6 5 3 19 11 SW 0,0
18.10.2019 14:00:00 15,3 3,0 3 1 14 7 W -
18.10.2019 13:00:00 14,9 5,9 3 2 13 7 W 0,0
18.10.2019 12:00:00 13,3 8,1 2 1 8 4 W 0,0
18.10.2019 11:00:00 11,7 8,8 1 0 7 4 NNW 0,0
18.10.2019 10:00:00 9,7 8,5 0 0 6 3 S 0,0
18.10.2019 09:00:00 9,2 8,3 1 1 8 5 S 0,0
18.10.2019 08:00:00 9,6 8,7 4 2 11 6 WSW -
18.10.2019 07:00:00 9,8 9,0 3 2 7 4 NNE 0,0
18.10.2019 06:00:00 10,1 9,3 3 1 9 5 W 0,0
18.10.2019 05:00:00 10,3 9,6 3 2 9 5 W 0,0
18.10.2019 04:00:00 9,8 9,0 3 2 12 7 W 0,0
18.10.2019 03:00:00 9,8 9,2 4 2 12 6 W 0,0
18.10.2019 02:00:00 9,4 8,7 3 1 8 4 SW -
18.10.2019 01:00:00 9,8 9,0 1 0 5 3 NNW 0,0
18.10.2019 00:00:00 10,3 9,4 0 0 8 4 NE 0,0
17.10.2019 23:00:00 11,4 9,8 4 2 16 8 WSW 0,0
17.10.2019 22:00:00 11,4 8,8 3 2 11 6 WSW 0,0
17.10.2019 21:00:00 11,1 8,1 2 1 8 5 SSW 0,0
17.10.2019 20:00:00 12,1 7,6 0 0 12 6 SSW -
17.10.2019 19:00:00 13,6 8,4 3 2 15 8 W 0,0
17.10.2019 18:00:00 14,3 8,3 3 1 18 10 W 0,0
17.10.2019 17:00:00 14,6 7,1 5 3 26 14 WSW 0,0
17.10.2019 16:00:00 16,7 6,5 7 4 26 14 WSW 0,0
17.10.2019 15:00:00 17,5 7,6 7 4 26 14 WSW 0,0
17.10.2019 14:00:00 16,4 8,9 7 4 27 15 W -
17.10.2019 13:00:00 16,0 10,8 4 2 21 12 W 0,0
17.10.2019 12:00:00 12,8 11,3 4 2 15 8 W 0,0
17.10.2019 11:00:00 10,6 10,0 3 2 15 8 W 0,0
17.10.2019 10:00:00 9,5 8,9 3 2 13 7 WSW 0,0
17.10.2019 09:00:00 9,2 8,7 4 2 12 7 WSW 0,0
17.10.2019 08:00:00 9,1 8,4 3 2 14 8 W -
17.10.2019 07:00:00 8,9 7,3 5 3 11 6 SW 0,0
17.10.2019 06:00:00 7,6 5,5 3 1 9 5 SW 0,0
17.10.2019 05:00:00 7,8 4,6 4 2 10 5 SW 0,0
17.10.2019 04:00:00 8,9 5,9 3 1 7 4 SSW 0,0
17.10.2019 03:00:00 6,6 4,3 3 1 9 5 N 0,0
17.10.2019 02:00:00 5,1 3,2 3 2 6 3 N -
17.10.2019 01:00:00 4,3 2,9 3 1 7 4 NNE 0,0
17.10.2019 00:00:00 5,0 2,9 2 1 9 5 S 0,0
16.10.2019 23:00:00 5,4 2,7 5 3 11 6 NE 0,0
16.10.2019 22:00:00 6,2 2,9 5 3 8 5 NNE 0,0
16.10.2019 21:00:00 8,2 2,5 0 0 8 4 E 0,0
16.10.2019 20:00:00 10,2 1,9 3 1 9 5 E -
16.10.2019 19:00:00 12,3 -1,0 3 1 14 8 SW 0,0
16.10.2019 18:00:00 14,9 -2,5 3 2 12 6 SSW 0,0
16.10.2019 17:00:00 15,2 -4,8 4 2 18 10 W 0,0
16.10.2019 16:00:00 16,5 -3,6 4 2 16 9 WSW 0,0
16.10.2019 15:00:00 17,1 -2,5 4 2 19 10 W 0,0
16.10.2019 14:00:00 15,9 -3,6 3 1 13 7 W -
16.10.2019 13:00:00 12,9 -3,3 3 2 9 5 E 0,0
16.10.2019 12:00:00 10,8 0,2 3 2 8 4 SE 0,0
16.10.2019 11:00:00 7,3 1,9 0 0 4 2 SE 0,0
16.10.2019 10:00:00 5,2 2,5 0 0 5 3 SW 0,0
16.10.2019 09:00:00 0,6 -0,5 0 0 7 4 ENE 0,0
16.10.2019 08:00:00 0,7 -0,3 1 1 8 4 E -
16.10.2019 07:00:00 0,8 0,2 2 1 8 4 NE 0,0
16.10.2019 06:00:00 0,8 0,2 3 1 7 4 ENE 0,0
16.10.2019 05:00:00 1,0 0,2 5 3 8 4 N 0,0
16.10.2019 04:00:00 1,2 0,4 5 3 9 5 NNE 0,0
16.10.2019 03:00:00 1,7 0,4 1 1 9 5 NNE 0,0
16.10.2019 02:00:00 2,1 0,9 5 3 9 5 NNE -
16.10.2019 01:00:00 3,0 1,5 0 0 6 4 N 0,0
16.10.2019 00:00:00 3,5 2,1 1 1 10 5 NNE 0,0
15.10.2019 23:00:00 2,8 1,7 1 1 6 4 NNE 0,0
15.10.2019 22:00:00 3,1 1,3 2 1 8 5 SW 0,0
15.10.2019 21:00:00 4,0 0,9 3 2 7 4 WSW 0,0
15.10.2019 20:00:00 5,5 0,4 2 1 11 6 SW -
15.10.2019 19:00:00 8,3 0,9 1 1 11 6 W 0,0
15.10.2019 18:00:00 10,4 -0,5 4 2 18 10 WSW 0,0
15.10.2019 17:00:00 11,2 -0,7 5 3 18 10 WSW 0,0
15.10.2019 16:00:00 11,9 -2,0 4 2 17 9 W 0,0
15.10.2019 15:00:00 12,0 -3,0 4 2 13 7 W 0,0
15.10.2019 14:00:00 11,1 -1,7 3 1 14 7 WNW -
15.10.2019 13:00:00 10,5 0,9 3 2 15 8 W 0,0
15.10.2019 12:00:00 8,7 1,1 4 2 14 7 W 0,0
15.10.2019 11:00:00 7,1 2,9 4 2 11 6 SW 0,0
15.10.2019 10:00:00 3,4 2,3 2 1 9 5 WSW 0,0
15.10.2019 09:00:00 0,4 0,2 4 2 10 5 W 0,0
15.10.2019 08:00:00 0,0 -0,3 3 2 10 5 NW -
15.10.2019 07:00:00 0,0 -0,5 4 2 14 8 WSW 0,0
15.10.2019 06:00:00 0,8 0,2 5 3 16 9 WSW 0,0
15.10.2019 05:00:00 1,8 1,1 4 2 14 8 WSW 0,0
15.10.2019 04:00:00 1,6 0,9 5 3 26 14 SW 0,0
15.10.2019 03:00:00 1,4 0,9 5 3 23 13 SW 0,0
15.10.2019 02:00:00 1,4 0,9 4 2 16 9 WSW -
15.10.2019 01:00:00 1,5 0,9 4 2 21 11 WSW 0,0
15.10.2019 00:00:00 2,3 1,5 4 2 20 11 W 0,0
14.10.2019 23:00:00 3,0 2,3 2 1 22 12 W 0,0

tt = temperature
td = dewpoint
ff = wind speed
fx = gusts
dd = wind direction
rr = precipitation

Next stations